sensor_id;sensor_type;location;lat;lon;timestamp;temperature;humidity
34147;DHT22;20423;49.448;9.056;2024-03-23T00:55:56;9.10;99.90
34147;DHT22;20423;49.448;9.056;2024-03-23T00:58:22;9.20;99.90
34147;DHT22;20423;49.448;9.056;2024-03-23T01:00:48;9.30;99.90
34147;DHT22;20423;49.448;9.056;2024-03-23T01:03:14;9.20;99.90
34147;DHT22;20423;49.448;9.056;2024-03-23T01:05:39;9.20;99.90
34147;DHT22;20423;49.448;9.056;2024-03-23T01:08:05;9.30;99.90
34147;DHT22;20423;49.448;9.056;2024-03-23T01:10:31;9.30;99.90
34147;DHT22;20423;49.448;9.056;2024-03-23T01:12:57;9.40;99.90
34147;DHT22;20423;49.448;9.056;2024-03-23T01:15:22;9.40;99.90
34147;DHT22;20423;49.448;9.056;2024-03-23T01:17:48;9.40;99.90
34147;DHT22;20423;49.448;9.056;2024-03-23T01:20:14;9.40;99.90
34147;DHT22;20423;49.448;9.056;2024-03-23T01:22:40;9.50;99.90
34147;DHT22;20423;49.448;9.056;2024-03-23T01:25:06;9.60;99.90
34147;DHT22;20423;49.448;9.056;2024-03-23T01:27:31;9.70;99.90
34147;DHT22;20423;49.448;9.056;2024-03-23T01:29:57;9.60;99.90
34147;DHT22;20423;49.448;9.056;2024-03-23T01:32:23;9.60;99.90
34147;DHT22;20423;49.448;9.056;2024-03-23T01:34:48;9.50;99.90
34147;DHT22;20423;49.448;9.056;2024-03-23T01:37:14;9.50;99.90
34147;DHT22;20423;49.448;9.056;2024-03-23T01:39:40;9.60;99.90
34147;DHT22;20423;49.448;9.056;2024-03-23T01:42:06;9.60;99.90
34147;DHT22;20423;49.448;9.056;2024-03-23T01:44:31;9.50;99.90
34147;DHT22;20423;49.448;9.056;2024-03-23T01:46:57;9.30;99.90
34147;DHT22;20423;49.448;9.056;2024-03-23T01:49:23;9.20;99.90
34147;DHT22;20423;49.448;9.056;2024-03-23T01:51:49;9.00;99.90
34147;DHT22;20423;49.448;9.056;2024-03-23T01:54:15;9.00;99.90
34147;DHT22;20423;49.448;9.056;2024-03-23T01:56:41;9.10;99.90
34147;DHT22;20423;49.448;9.056;2024-03-23T01:59:07;9.00;99.90
34147;DHT22;20423;49.448;9.056;2024-03-23T02:01:34;9.00;99.90
34147;DHT22;20423;49.448;9.056;2024-03-23T02:04:01;9.10;99.90
34147;DHT22;20423;49.448;9.056;2024-03-23T02:06:27;9.20;99.90
34147;DHT22;20423;49.448;9.056;2024-03-23T02:08:56;9.20;99.90
34147;DHT22;20423;49.448;9.056;2024-03-23T02:11:22;9.30;99.90
34147;DHT22;20423;49.448;9.056;2024-03-23T02:13:48;9.40;99.90
34147;DHT22;20423;49.448;9.056;2024-03-23T02:16:14;9.40;99.90
34147;DHT22;20423;49.448;9.056;2024-03-23T02:18:39;9.30;99.90
34147;DHT22;20423;49.448;9.056;2024-03-23T02:21:05;9.30;99.90
34147;DHT22;20423;49.448;9.056;2024-03-23T02:23:31;9.20;99.90
34147;DHT22;20423;49.448;9.056;2024-03-23T02:25:57;9.40;99.90
34147;DHT22;20423;49.448;9.056;2024-03-23T02:28:23;9.40;99.90
34147;DHT22;20423;49.448;9.056;2024-03-23T02:30:49;9.60;99.90
34147;DHT22;20423;49.448;9.056;2024-03-23T02:33:15;9.70;99.90
34147;DHT22;20423;49.448;9.056;2024-03-23T02:35:41;9.70;99.90
34147;DHT22;20423;49.448;9.056;2024-03-23T02:38:07;9.80;99.90
34147;DHT22;20423;49.448;9.056;2024-03-23T02:40:33;9.80;99.90
34147;DHT22;20423;49.448;9.056;2024-03-23T02:42:58;9.80;99.90
34147;DHT22;20423;49.448;9.056;2024-03-23T02:45:24;9.90;99.90
34147;DHT22;20423;49.448;9.056;2024-03-23T02:47:50;9.90;99.90
34147;DHT22;20423;49.448;9.056;2024-03-23T02:50:18;9.90;99.90
34147;DHT22;20423;49.448;9.056;2024-03-23T02:52:44;10.00;99.90
34147;DHT22;20423;49.448;9.056;2024-03-23T02:55:10;10.00;99.90
34147;DHT22;20423;49.448;9.056;2024-03-23T02:57:35;10.00;99.90
34147;DHT22;20423;49.448;9.056;2024-03-23T03:00:01;10.00;99.90
34147;DHT22;20423;49.448;9.056;2024-03-23T03:02:27;10.00;99.90
34147;DHT22;20423;49.448;9.056;2024-03-23T03:04:53;10.00;99.90
34147;DHT22;20423;49.448;9.056;2024-03-23T03:07:19;10.00;99.90
34147;DHT22;20423;49.448;9.056;2024-03-23T03:09:44;10.00;99.90
34147;DHT22;20423;49.448;9.056;2024-03-23T03:12:10;10.00;99.90
34147;DHT22;20423;49.448;9.056;2024-03-23T03:14:36;10.10;99.90
34147;DHT22;20423;49.448;9.056;2024-03-23T03:17:01;10.10;99.90
34147;DHT22;20423;49.448;9.056;2024-03-23T03:19:27;10.00;99.90
34147;DHT22;20423;49.448;9.056;2024-03-23T03:21:53;10.10;99.90
34147;DHT22;20423;49.448;9.056;2024-03-23T03:24:19;10.00;99.90
34147;DHT22;20423;49.448;9.056;2024-03-23T03:26:44;10.00;99.90
34147;DHT22;20423;49.448;9.056;2024-03-23T03:29:10;9.90;99.90
34147;DHT22;20423;49.448;9.056;2024-03-23T03:31:40;9.80;99.90
34147;DHT22;20423;49.448;9.056;2024-03-23T03:34:06;9.70;99.90
34147;DHT22;20423;49.448;9.056;2024-03-23T03:36:32;9.70;99.90
34147;DHT22;20423;49.448;9.056;2024-03-23T03:38:57;9.60;99.90
34147;DHT22;20423;49.448;9.056;2024-03-23T03:41:23;9.50;99.90
34147;DHT22;20423;49.448;9.056;2024-03-23T03:43:49;9.40;99.90
34147;DHT22;20423;49.448;9.056;2024-03-23T03:46:14;9.40;99.90
34147;DHT22;20423;49.448;9.056;2024-03-23T03:48:40;9.40;99.90
34147;DHT22;20423;49.448;9.056;2024-03-23T03:51:06;9.40;99.90
34147;DHT22;20423;49.448;9.056;2024-03-23T03:53:31;9.30;99.90
34147;DHT22;20423;49.448;9.056;2024-03-23T03:56:01;9.30;99.90
34147;DHT22;20423;49.448;9.056;2024-03-23T03:58:27;9.20;99.90
34147;DHT22;20423;49.448;9.056;2024-03-23T04:00:53;9.30;99.90
34147;DHT22;20423;49.448;9.056;2024-03-23T04:03:19;9.30;99.90
34147;DHT22;20423;49.448;9.056;2024-03-23T04:05:53;9.20;99.90
34147;DHT22;20423;49.448;9.056;2024-03-23T04:08:19;9.20;99.90
34147;DHT22;20423;49.448;9.056;2024-03-23T04:10:45;9.10;99.90
34147;DHT22;20423;49.448;9.056;2024-03-23T04:13:12;9.10;99.90
34147;DHT22;20423;49.448;9.056;2024-03-23T04:15:38;9.10;99.90
34147;DHT22;20423;49.448;9.056;2024-03-23T04:18:04;9.10;99.90
34147;DHT22;20423;49.448;9.056;2024-03-23T04:20:30;9.10;99.90
34147;DHT22;20423;49.448;9.056;2024-03-23T04:22:55;9.00;99.90
34147;DHT22;20423;49.448;9.056;2024-03-23T04:25:21;9.00;99.90
34147;DHT22;20423;49.448;9.056;2024-03-23T04:27:46;9.00;99.90
34147;DHT22;20423;49.448;9.056;2024-03-23T04:30:12;9.00;99.90
34147;DHT22;20423;49.448;9.056;2024-03-23T04:32:38;9.00;99.90
34147;DHT22;20423;49.448;9.056;2024-03-23T04:35:04;9.00;99.90
34147;DHT22;20423;49.448;9.056;2024-03-23T04:37:38;9.10;99.90
34147;DHT22;20423;49.448;9.056;2024-03-23T04:40:06;9.00;99.90
34147;DHT22;20423;49.448;9.056;2024-03-23T04:42:33;9.00;99.90
34147;DHT22;20423;49.448;9.056;2024-03-23T04:44:59;9.00;99.90
34147;DHT22;20423;49.448;9.056;2024-03-23T04:47:25;8.90;99.90
34147;DHT22;20423;49.448;9.056;2024-03-23T04:49:52;8.90;99.90
34147;DHT22;20423;49.448;9.056;2024-03-23T04:52:17;8.90;99.90
34147;DHT22;20423;49.448;9.056;2024-03-23T04:54:43;8.90;99.90
34147;DHT22;20423;49.448;9.056;2024-03-23T04:57:11;8.90;99.90
34147;DHT22;20423;49.448;9.056;2024-03-23T04:59:36;8.90;99.90
34147;DHT22;20423;49.448;9.056;2024-03-23T05:02:02;8.90;99.90
34147;DHT22;20423;49.448;9.056;2024-03-23T05:04:28;8.90;99.90
34147;DHT22;20423;49.448;9.056;2024-03-23T05:06:54;8.90;99.90
34147;DHT22;20423;49.448;9.056;2024-03-23T05:09:19;8.90;99.90
34147;DHT22;20423;49.448;9.056;2024-03-23T05:11:45;8.80;99.90
34147;DHT22;20423;49.448;9.056;2024-03-23T05:14:15;8.80;99.90
34147;DHT22;20423;49.448;9.056;2024-03-23T05:16:40;8.80;99.90
34147;DHT22;20423;49.448;9.056;2024-03-23T05:19:06;8.70;99.90
34147;DHT22;20423;49.448;9.056;2024-03-23T05:21:32;8.60;99.90
34147;DHT22;20423;49.448;9.056;2024-03-23T05:23:57;8.50;99.90
34147;DHT22;20423;49.448;9.056;2024-03-23T05:26:23;8.40;99.90
34147;DHT22;20423;49.448;9.056;2024-03-23T05:28:49;8.30;99.90
34147;DHT22;20423;49.448;9.056;2024-03-23T05:31:29;8.20;99.90
34147;DHT22;20423;49.448;9.056;2024-03-23T05:33:55;8.10;99.90
34147;DHT22;20423;49.448;9.056;2024-03-23T05:36:21;8.10;99.90
34147;DHT22;20423;49.448;9.056;2024-03-23T05:38:47;8.00;99.90
34147;DHT22;20423;49.448;9.056;2024-03-23T05:41:13;7.90;99.90
34147;DHT22;20423;49.448;9.056;2024-03-23T05:43:39;7.90;99.90
34147;DHT22;20423;49.448;9.056;2024-03-23T05:46:05;7.80;99.90
34147;DHT22;20423;49.448;9.056;2024-03-23T05:48:31;7.70;99.90
34147;DHT22;20423;49.448;9.056;2024-03-23T05:50:57;7.70;99.90
34147;DHT22;20423;49.448;9.056;2024-03-23T05:53:24;7.60;99.90
34147;DHT22;20423;49.448;9.056;2024-03-23T05:55:50;7.60;99.90
34147;DHT22;20423;49.448;9.056;2024-03-23T05:58:19;7.50;99.90
34147;DHT22;20423;49.448;9.056;2024-03-23T06:00:46;7.40;99.90
34147;DHT22;20423;49.448;9.056;2024-03-23T06:03:11;7.40;99.90
34147;DHT22;20423;49.448;9.056;2024-03-23T06:05:37;7.40;99.90
34147;DHT22;20423;49.448;9.056;2024-03-23T06:08:04;7.30;99.90
34147;DHT22;20423;49.448;9.056;2024-03-23T06:10:30;7.20;99.90
34147;DHT22;20423;49.448;9.056;2024-03-23T06:12:57;7.00;99.90
34147;DHT22;20423;49.448;9.056;2024-03-23T06:15:24;6.70;99.90
34147;DHT22;20423;49.448;9.056;2024-03-23T06:17:50;6.30;99.90
34147;DHT22;20423;49.448;9.056;2024-03-23T06:20:15;6.00;99.90
34147;DHT22;20423;49.448;9.056;2024-03-23T06:22:42;5.70;99.90
34147;DHT22;20423;49.448;9.056;2024-03-23T06:25:08;5.60;99.90
34147;DHT22;20423;49.448;9.056;2024-03-23T06:27:34;5.50;99.90
34147;DHT22;20423;49.448;9.056;2024-03-23T06:30:00;5.40;99.90
34147;DHT22;20423;49.448;9.056;2024-03-23T06:32:27;5.30;99.90
34147;DHT22;20423;49.448;9.056;2024-03-23T06:34:53;5.20;99.90
34147;DHT22;20423;49.448;9.056;2024-03-23T06:37:18;5.20;99.90
34147;DHT22;20423;49.448;9.056;2024-03-23T06:39:46;5.10;99.90
34147;DHT22;20423;49.448;9.056;2024-03-23T06:42:12;5.00;99.90
34147;DHT22;20423;49.448;9.056;2024-03-23T06:44:38;5.00;99.90
34147;DHT22;20423;49.448;9.056;2024-03-23T06:47:05;5.00;99.90
34147;DHT22;20423;49.448;9.056;2024-03-23T06:49:30;4.90;99.90
34147;DHT22;20423;49.448;9.056;2024-03-23T06:51:56;4.80;99.90
34147;DHT22;20423;49.448;9.056;2024-03-23T06:54:22;4.80;99.90
34147;DHT22;20423;49.448;9.056;2024-03-23T06:56:49;4.80;99.90
34147;DHT22;20423;49.448;9.056;2024-03-23T06:59:15;4.80;99.90
34147;DHT22;20423;49.448;9.056;2024-03-23T07:01:41;4.70;99.90
34147;DHT22;20423;49.448;9.056;2024-03-23T07:04:07;4.70;99.90
34147;DHT22;20423;49.448;9.056;2024-03-23T07:06:33;4.70;99.90
34147;DHT22;20423;49.448;9.056;2024-03-23T07:08:59;4.60;99.90
34147;DHT22;20423;49.448;9.056;2024-03-23T07:11:28;4.60;99.90
34147;DHT22;20423;49.448;9.056;2024-03-23T07:13:54;4.50;99.90
34147;DHT22;20423;49.448;9.056;2024-03-23T07:16:21;4.40;99.90
34147;DHT22;20423;49.448;9.056;2024-03-23T07:18:47;4.40;99.90
34147;DHT22;20423;49.448;9.056;2024-03-23T07:21:14;4.40;99.90
34147;DHT22;20423;49.448;9.056;2024-03-23T07:23:42;4.40;99.90
34147;DHT22;20423;49.448;9.056;2024-03-23T07:26:11;4.40;99.90
34147;DHT22;20423;49.448;9.056;2024-03-23T07:28:37;4.60;99.90
34147;DHT22;20423;49.448;9.056;2024-03-23T07:31:31;4.70;99.90
34147;DHT22;20423;49.448;9.056;2024-03-23T07:33:56;4.80;99.90
34147;DHT22;20423;49.448;9.056;2024-03-23T07:36:22;4.80;99.90
34147;DHT22;20423;49.448;9.056;2024-03-23T07:38:48;4.80;99.90
34147;DHT22;20423;49.448;9.056;2024-03-23T07:41:18;4.70;99.90
34147;DHT22;20423;49.448;9.056;2024-03-23T07:44:03;4.60;99.90
34147;DHT22;20423;49.448;9.056;2024-03-23T07:46:29;4.60;99.90
34147;DHT22;20423;49.448;9.056;2024-03-23T07:48:55;4.50;99.90
34147;DHT22;20423;49.448;9.056;2024-03-23T07:51:21;4.50;99.90
34147;DHT22;20423;49.448;9.056;2024-03-23T07:53:48;4.60;99.90
34147;DHT22;20423;49.448;9.056;2024-03-23T07:56:14;4.60;99.90
34147;DHT22;20423;49.448;9.056;2024-03-23T07:58:47;4.60;99.90
34147;DHT22;20423;49.448;9.056;2024-03-23T08:01:16;4.60;99.90
34147;DHT22;20423;49.448;9.056;2024-03-23T08:03:45;4.60;99.90
34147;DHT22;20423;49.448;9.056;2024-03-23T08:06:16;4.60;99.90
34147;DHT22;20423;49.448;9.056;2024-03-23T08:08:45;4.50;99.90
34147;DHT22;20423;49.448;9.056;2024-03-23T08:11:11;4.50;99.90
34147;DHT22;20423;49.448;9.056;2024-03-23T08:13:39;4.60;99.90
34147;DHT22;20423;49.448;9.056;2024-03-23T08:16:05;4.60;99.90
34147;DHT22;20423;49.448;9.056;2024-03-23T08:18:31;4.80;99.90
34147;DHT22;20423;49.448;9.056;2024-03-23T08:21:04;4.90;99.90
34147;DHT22;20423;49.448;9.056;2024-03-23T08:23:35;5.00;99.90
34147;DHT22;20423;49.448;9.056;2024-03-23T08:26:06;5.10;99.90
34147;DHT22;20423;49.448;9.056;2024-03-23T08:29:10;5.10;99.90
34147;DHT22;20423;49.448;9.056;2024-03-23T08:31:37;5.20;99.90
34147;DHT22;20423;49.448;9.056;2024-03-23T08:34:02;5.00;99.90
34147;DHT22;20423;49.448;9.056;2024-03-23T08:36:28;5.00;99.90
34147;DHT22;20423;49.448;9.056;2024-03-23T08:38:56;5.10;99.90
34147;DHT22;20423;49.448;9.056;2024-03-23T08:41:21;5.40;99.90
34147;DHT22;20423;49.448;9.056;2024-03-23T08:43:47;5.80;99.90
34147;DHT22;20423;49.448;9.056;2024-03-23T08:46:15;6.20;99.90
34147;DHT22;20423;49.448;9.056;2024-03-23T08:48:42;6.30;99.90
34147;DHT22;20423;49.448;9.056;2024-03-23T08:51:13;6.30;99.90
34147;DHT22;20423;49.448;9.056;2024-03-23T08:53:39;6.00;99.90
34147;DHT22;20423;49.448;9.056;2024-03-23T08:56:05;6.40;99.90
34147;DHT22;20423;49.448;9.056;2024-03-23T08:58:35;6.50;99.90
34147;DHT22;20423;49.448;9.056;2024-03-23T09:01:10;6.20;99.90
34147;DHT22;20423;49.448;9.056;2024-03-23T09:04:02;5.90;99.90
34147;DHT22;20423;49.448;9.056;2024-03-23T09:06:28;6.40;99.90
34147;DHT22;20423;49.448;9.056;2024-03-23T09:08:53;6.20;99.90
34147;DHT22;20423;49.448;9.056;2024-03-23T09:11:19;5.80;99.90
34147;DHT22;20423;49.448;9.056;2024-03-23T09:13:45;6.00;99.90
34147;DHT22;20423;49.448;9.056;2024-03-23T09:16:10;6.70;99.90
34147;DHT22;20423;49.448;9.056;2024-03-23T09:18:38;7.50;99.90
34147;DHT22;20423;49.448;9.056;2024-03-23T09:21:12;8.10;99.90
34147;DHT22;20423;49.448;9.056;2024-03-23T09:23:39;8.40;99.90
34147;DHT22;20423;49.448;9.056;2024-03-23T09:26:17;8.30;99.90
34147;DHT22;20423;49.448;9.056;2024-03-23T09:32:14;8.00;99.90
34147;DHT22;20423;49.448;9.056;2024-03-23T09:34:40;7.90;99.90
34147;DHT22;20423;49.448;9.056;2024-03-23T09:40:15;7.90;99.90
34147;DHT22;20423;49.448;9.056;2024-03-23T09:42:42;8.00;99.90
34147;DHT22;20423;49.448;9.056;2024-03-23T09:45:23;7.80;99.90
34147;DHT22;20423;49.448;9.056;2024-03-23T09:47:51;7.90;99.90
34147;DHT22;20423;49.448;9.056;2024-03-23T09:50:17;8.40;99.90
34147;DHT22;20423;49.448;9.056;2024-03-23T09:52:46;8.30;99.90
34147;DHT22;20423;49.448;9.056;2024-03-23T09:55:11;8.10;99.90
34147;DHT22;20423;49.448;9.056;2024-03-23T09:57:37;8.80;99.90
34147;DHT22;20423;49.448;9.056;2024-03-23T10:00:03;9.20;99.90
34147;DHT22;20423;49.448;9.056;2024-03-23T10:02:33;9.30;99.90
34147;DHT22;20423;49.448;9.056;2024-03-23T10:04:59;8.70;99.90
34147;DHT22;20423;49.448;9.056;2024-03-23T10:07:25;8.80;99.90
34147;DHT22;20423;49.448;9.056;2024-03-23T10:09:53;9.20;99.90
34147;DHT22;20423;49.448;9.056;2024-03-23T10:12:50;8.70;99.90
34147;DHT22;20423;49.448;9.056;2024-03-23T10:15:54;8.00;99.90
34147;DHT22;20423;49.448;9.056;2024-03-23T10:18:20;7.50;99.90
34147;DHT22;20423;49.448;9.056;2024-03-23T10:21:07;7.20;99.90
34147;DHT22;20423;49.448;9.056;2024-03-23T10:23:35;7.10;99.90
34147;DHT22;20423;49.448;9.056;2024-03-23T10:29:01;7.40;99.90
34147;DHT22;20423;49.448;9.056;2024-03-23T10:31:31;7.50;99.90
34147;DHT22;20423;49.448;9.056;2024-03-23T10:33:57;7.70;99.90
34147;DHT22;20423;49.448;9.056;2024-03-23T10:36:24;8.10;99.90
34147;DHT22;20423;49.448;9.056;2024-03-23T10:38:52;8.30;99.90
34147;DHT22;20423;49.448;9.056;2024-03-23T10:41:18;8.20;99.90
34147;DHT22;20423;49.448;9.056;2024-03-23T10:43:48;8.30;99.90
34147;DHT22;20423;49.448;9.056;2024-03-23T10:46:15;8.20;99.90
34147;DHT22;20423;49.448;9.056;2024-03-23T10:48:41;8.20;99.90
34147;DHT22;20423;49.448;9.056;2024-03-23T10:51:08;8.20;99.90
34147;DHT22;20423;49.448;9.056;2024-03-23T10:53:34;8.10;99.90
34147;DHT22;20423;49.448;9.056;2024-03-23T10:56:00;7.90;99.90
34147;DHT22;20423;49.448;9.056;2024-03-23T11:01:03;7.80;99.90
34147;DHT22;20423;49.448;9.056;2024-03-23T11:03:36;7.90;99.90
34147;DHT22;20423;49.448;9.056;2024-03-23T11:06:06;8.00;99.90
34147;DHT22;20423;49.448;9.056;2024-03-23T11:08:38;8.10;99.90
34147;DHT22;20423;49.448;9.056;2024-03-23T11:11:20;8.10;99.90
34147;DHT22;20423;49.448;9.056;2024-03-23T11:13:50;7.90;99.90
34147;DHT22;20423;49.448;9.056;2024-03-23T11:16:21;8.40;99.90
34147;DHT22;20423;49.448;9.056;2024-03-23T11:18:47;9.70;99.90
34147;DHT22;20423;49.448;9.056;2024-03-23T11:24:18;10.90;99.90
34147;DHT22;20423;49.448;9.056;2024-03-23T11:26:44;10.80;99.90
34147;DHT22;20423;49.448;9.056;2024-03-23T11:29:11;10.50;99.90
34147;DHT22;20423;49.448;9.056;2024-03-23T11:31:57;10.30;99.90
34147;DHT22;20423;49.448;9.056;2024-03-23T11:34:24;9.40;99.90
34147;DHT22;20423;49.448;9.056;2024-03-23T11:36:50;8.50;99.90
34147;DHT22;20423;49.448;9.056;2024-03-23T11:39:37;8.30;99.90
34147;DHT22;20423;49.448;9.056;2024-03-23T11:42:03;8.20;99.90
34147;DHT22;20423;49.448;9.056;2024-03-23T11:44:28;8.00;99.90
34147;DHT22;20423;49.448;9.056;2024-03-23T11:47:07;7.90;99.90
34147;DHT22;20423;49.448;9.056;2024-03-23T11:49:42;8.00;99.90
34147;DHT22;20423;49.448;9.056;2024-03-23T11:52:08;8.00;99.90
34147;DHT22;20423;49.448;9.056;2024-03-23T11:54:34;7.90;99.90
34147;DHT22;20423;49.448;9.056;2024-03-23T11:57:02;8.00;99.90
34147;DHT22;20423;49.448;9.056;2024-03-23T12:02:12;9.80;99.90
34147;DHT22;20423;49.448;9.056;2024-03-23T12:04:41;10.60;99.90
34147;DHT22;20423;49.448;9.056;2024-03-23T12:07:11;10.30;99.90
34147;DHT22;20423;49.448;9.056;2024-03-23T12:09:37;10.10;99.90
34147;DHT22;20423;49.448;9.056;2024-03-23T12:12:17;10.50;99.90
34147;DHT22;20423;49.448;9.056;2024-03-23T12:14:44;10.00;99.90
34147;DHT22;20423;49.448;9.056;2024-03-23T12:17:14;9.40;99.90
34147;DHT22;20423;49.448;9.056;2024-03-23T12:19:41;9.40;99.90
34147;DHT22;20423;49.448;9.056;2024-03-23T12:22:07;9.60;99.90
34147;DHT22;20423;49.448;9.056;2024-03-23T12:24:34;9.60;99.90
34147;DHT22;20423;49.448;9.056;2024-03-23T12:27:04;10.20;99.70
34147;DHT22;20423;49.448;9.056;2024-03-23T12:29:34;10.10;99.90
34147;DHT22;20423;49.448;9.056;2024-03-23T12:32:01;9.20;99.90
34147;DHT22;20423;49.448;9.056;2024-03-23T12:34:29;8.40;99.90
34147;DHT22;20423;49.448;9.056;2024-03-23T12:36:56;7.70;99.90
34147;DHT22;20423;49.448;9.056;2024-03-23T12:39:22;7.10;99.90
34147;DHT22;20423;49.448;9.056;2024-03-23T12:41:48;6.50;99.90
34147;DHT22;20423;49.448;9.056;2024-03-23T12:44:14;5.70;99.90
34147;DHT22;20423;49.448;9.056;2024-03-23T12:46:44;5.20;99.90
34147;DHT22;20423;49.448;9.056;2024-03-23T12:49:10;4.70;99.90
34147;DHT22;20423;49.448;9.056;2024-03-23T12:51:36;4.30;99.90
34147;DHT22;20423;49.448;9.056;2024-03-23T12:57:50;4.10;99.90
34147;DHT22;20423;49.448;9.056;2024-03-23T13:00:16;3.90;99.90
34147;DHT22;20423;49.448;9.056;2024-03-23T13:02:42;3.70;99.90
34147;DHT22;20423;49.448;9.056;2024-03-23T13:05:08;3.30;99.90
34147;DHT22;20423;49.448;9.056;2024-03-23T13:07:37;3.30;99.90
34147;DHT22;20423;49.448;9.056;2024-03-23T13:10:05;3.30;99.90
34147;DHT22;20423;49.448;9.056;2024-03-23T13:12:31;3.40;99.90
34147;DHT22;20423;49.448;9.056;2024-03-23T13:14:57;3.50;99.90
34147;DHT22;20423;49.448;9.056;2024-03-23T13:17:22;3.60;99.90
34147;DHT22;20423;49.448;9.056;2024-03-23T13:19:48;3.60;99.90
34147;DHT22;20423;49.448;9.056;2024-03-23T13:22:32;3.80;99.90
34147;DHT22;20423;49.448;9.056;2024-03-23T13:24:58;4.10;99.90
34147;DHT22;20423;49.448;9.056;2024-03-23T13:27:25;4.20;99.90
34147;DHT22;20423;49.448;9.056;2024-03-23T13:29:50;4.50;99.90
34147;DHT22;20423;49.448;9.056;2024-03-23T13:32:16;5.00;99.90
34147;DHT22;20423;49.448;9.056;2024-03-23T13:34:42;5.20;99.90
34147;DHT22;20423;49.448;9.056;2024-03-23T13:40:17;5.50;99.90
34147;DHT22;20423;49.448;9.056;2024-03-23T13:42:45;5.40;99.90
34147;DHT22;20423;49.448;9.056;2024-03-23T13:45:11;5.20;99.90
34147;DHT22;20423;49.448;9.056;2024-03-23T13:47:37;4.80;99.90
34147;DHT22;20423;49.448;9.056;2024-03-23T13:50:03;4.40;99.90
34147;DHT22;20423;49.448;9.056;2024-03-23T13:52:29;4.10;99.90
34147;DHT22;20423;49.448;9.056;2024-03-23T14:02:06;3.70;99.90
34147;DHT22;20423;49.448;9.056;2024-03-23T14:04:31;3.80;99.90
34147;DHT22;20423;49.448;9.056;2024-03-23T14:06:57;4.00;99.90
34147;DHT22;20423;49.448;9.056;2024-03-23T14:09:23;4.20;99.90
34147;DHT22;20423;49.448;9.056;2024-03-23T14:11:51;4.20;99.90
34147;DHT22;20423;49.448;9.056;2024-03-23T14:14:17;4.20;99.90
34147;DHT22;20423;49.448;9.056;2024-03-23T14:16:43;4.40;99.90
34147;DHT22;20423;49.448;9.056;2024-03-23T14:19:09;4.60;99.90
34147;DHT22;20423;49.448;9.056;2024-03-23T14:21:35;4.50;99.90
34147;DHT22;20423;49.448;9.056;2024-03-23T14:24:01;4.50;99.90
34147;DHT22;20423;49.448;9.056;2024-03-23T14:26:27;4.40;99.90
34147;DHT22;20423;49.448;9.056;2024-03-23T14:28:53;4.50;99.90
34147;DHT22;20423;49.448;9.056;2024-03-23T14:31:19;4.90;99.90
34147;DHT22;20423;49.448;9.056;2024-03-23T14:33:45;5.10;99.90
34147;DHT22;20423;49.448;9.056;2024-03-23T14:36:14;5.30;99.90
34147;DHT22;20423;49.448;9.056;2024-03-23T14:38:41;5.20;99.90
34147;DHT22;20423;49.448;9.056;2024-03-23T14:41:06;5.00;99.90
34147;DHT22;20423;49.448;9.056;2024-03-23T14:43:32;4.70;99.90
34147;DHT22;20423;49.448;9.056;2024-03-23T14:46:12;4.80;99.90
34147;DHT22;20423;49.448;9.056;2024-03-23T14:48:48;5.00;99.90
34147;DHT22;20423;49.448;9.056;2024-03-23T14:51:33;5.30;99.90
34147;DHT22;20423;49.448;9.056;2024-03-23T14:53:59;5.70;99.90
34147;DHT22;20423;49.448;9.056;2024-03-23T14:56:25;5.90;99.90
34147;DHT22;20423;49.448;9.056;2024-03-23T14:58:53;5.70;99.90
34147;DHT22;20423;49.448;9.056;2024-03-23T15:01:21;5.60;99.90
34147;DHT22;20423;49.448;9.056;2024-03-23T15:03:46;5.50;99.90
34147;DHT22;20423;49.448;9.056;2024-03-23T15:06:13;5.30;99.90
34147;DHT22;20423;49.448;9.056;2024-03-23T15:08:39;5.10;99.90
34147;DHT22;20423;49.448;9.056;2024-03-23T15:11:06;5.10;99.90
34147;DHT22;20423;49.448;9.056;2024-03-23T15:13:35;5.20;99.90
34147;DHT22;20423;49.448;9.056;2024-03-23T15:16:05;5.30;99.90
34147;DHT22;20423;49.448;9.056;2024-03-23T15:18:31;5.40;99.90
34147;DHT22;20423;49.448;9.056;2024-03-23T15:20:59;5.30;99.90
34147;DHT22;20423;49.448;9.056;2024-03-23T15:23:28;5.10;99.90
34147;DHT22;20423;49.448;9.056;2024-03-23T15:25:58;5.00;99.90
34147;DHT22;20423;49.448;9.056;2024-03-23T15:28:24;4.60;99.90
34147;DHT22;20423;49.448;9.056;2024-03-23T15:31:20;4.20;99.90
34147;DHT22;20423;49.448;9.056;2024-03-23T15:33:46;4.10;99.90
34147;DHT22;20423;49.448;9.056;2024-03-23T15:36:21;4.10;99.90
34147;DHT22;20423;49.448;9.056;2024-03-23T15:38:47;4.00;99.90
34147;DHT22;20423;49.448;9.056;2024-03-23T15:41:14;4.20;99.90
34147;DHT22;20423;49.448;9.056;2024-03-23T15:43:40;4.30;99.90
34147;DHT22;20423;49.448;9.056;2024-03-23T15:46:07;4.40;99.90
34147;DHT22;20423;49.448;9.056;2024-03-23T15:48:55;4.40;99.90
34147;DHT22;20423;49.448;9.056;2024-03-23T15:51:21;4.30;99.90
34147;DHT22;20423;49.448;9.056;2024-03-23T15:53:47;4.30;99.90
34147;DHT22;20423;49.448;9.056;2024-03-23T15:56:12;4.30;99.90
34147;DHT22;20423;49.448;9.056;2024-03-23T15:58:41;4.30;99.90
34147;DHT22;20423;49.448;9.056;2024-03-23T16:01:22;4.40;99.90
34147;DHT22;20423;49.448;9.056;2024-03-23T16:07:15;4.40;99.90
34147;DHT22;20423;49.448;9.056;2024-03-23T16:09:41;4.20;99.90
34147;DHT22;20423;49.448;9.056;2024-03-23T16:12:06;4.10;99.90
34147;DHT22;20423;49.448;9.056;2024-03-23T16:14:47;3.90;99.90
34147;DHT22;20423;49.448;9.056;2024-03-23T16:17:13;3.80;99.90
34147;DHT22;20423;49.448;9.056;2024-03-23T16:19:39;3.70;99.90
34147;DHT22;20423;49.448;9.056;2024-03-23T16:22:04;3.70;99.90
34147;DHT22;20423;49.448;9.056;2024-03-23T16:24:49;3.60;99.90
34147;DHT22;20423;49.448;9.056;2024-03-23T16:27:14;3.60;99.90
34147;DHT22;20423;49.448;9.056;2024-03-23T16:29:40;3.60;99.90
34147;DHT22;20423;49.448;9.056;2024-03-23T16:32:06;3.70;99.90
34147;DHT22;20423;49.448;9.056;2024-03-23T16:34:32;3.70;99.90
34147;DHT22;20423;49.448;9.056;2024-03-23T16:36:59;3.70;99.90
34147;DHT22;20423;49.448;9.056;2024-03-23T16:39:24;3.40;99.90
34147;DHT22;20423;49.448;9.056;2024-03-23T16:41:51;3.10;99.90
34147;DHT22;20423;49.448;9.056;2024-03-23T16:44:16;2.80;99.90
34147;DHT22;20423;49.448;9.056;2024-03-23T16:46:42;2.60;99.90
34147;DHT22;20423;49.448;9.056;2024-03-23T16:49:09;2.60;99.90
34147;DHT22;20423;49.448;9.056;2024-03-23T16:51:35;2.70;99.90
34147;DHT22;20423;49.448;9.056;2024-03-23T16:54:01;2.70;99.90
34147;DHT22;20423;49.448;9.056;2024-03-23T16:56:38;2.60;99.90
34147;DHT22;20423;49.448;9.056;2024-03-23T16:59:04;2.50;99.90
34147;DHT22;20423;49.448;9.056;2024-03-23T17:01:45;2.30;99.90
34147;DHT22;20423;49.448;9.056;2024-03-23T17:04:11;2.20;99.90
34147;DHT22;20423;49.448;9.056;2024-03-23T17:06:37;2.20;99.90
34147;DHT22;20423;49.448;9.056;2024-03-23T17:09:06;2.20;99.90
34147;DHT22;20423;49.448;9.056;2024-03-23T17:11:32;2.10;99.90
34147;DHT22;20423;49.448;9.056;2024-03-23T17:13:58;2.20;99.90
34147;DHT22;20423;49.448;9.056;2024-03-23T17:16:24;2.20;99.90
34147;DHT22;20423;49.448;9.056;2024-03-23T17:18:51;2.20;99.90